Time;durP1;ratioP1;P1;durP2;ratioP2;P2;SDS_P1;SDS_P2;PMS_P1;PMS_P2;Temp;Humidity;BMP_temperature;BMP_pressure;BME280_temperature;BME280_humidity;BME280_pressure;Samples;Min_cycle;Max_cycle;Signal;HPM_P1;HPM_P2
2022/11/05 00:10:35;;;;;;;30.15;13.32;;;;;;;8.97;100.00;101035.25;5056496;28;20051;-71
2022/11/05 00:18:41;;;;;;;44.75;22.85;;;;;;;8.90;100.00;101043.47;5062598;28;20044;-73
2022/11/05 00:26:49;;;;;;;34.53;17.08;;;;;;;8.76;100.00;101056.31;5055845;28;20061;-72
2022/11/05 00:29:15;;;;;;;36.55;16.95;;;;;;;8.73;100.00;101063.38;5060857;28;20056;-72
2022/11/05 00:31:42;;;;;;;34.17;16.50;;;;;;;8.72;100.00;101067.31;5061400;28;20048;-71
2022/11/05 00:34:08;;;;;;;36.75;16.20;;;;;;;8.69;100.00;101062.53;5058875;28;20087;-72
2022/11/05 00:36:36;;;;;;;33.42;16.70;;;;;;;8.74;100.00;101069.69;5065804;28;20775;-72
2022/11/05 00:39:04;;;;;;;32.22;16.80;;;;;;;8.71;100.00;101068.47;5064891;28;20114;-72
2022/11/05 00:41:31;;;;;;;29.70;15.25;;;;;;;8.70;100.00;101071.59;5056180;28;20450;-72
2022/11/05 00:46:43;;;;;;;31.52;15.82;;;;;;;8.58;100.00;101077.38;5050514;28;20045;-72
2022/11/05 00:54:40;;;;;;;28.52;13.80;;;;;;;8.37;100.00;101086.16;5057151;28;20049;-72
2022/11/05 00:57:07;;;;;;;33.75;14.30;;;;;;;8.35;100.00;101083.00;5062644;28;20447;-72
2022/11/05 00:59:33;;;;;;;29.98;13.45;;;;;;;8.30;100.00;101080.53;5059592;28;20044;-71
2022/11/05 01:02:08;;;;;;;33.90;14.13;;;;;;;8.28;100.00;101091.16;5066334;28;20236;-72
2022/11/05 01:04:35;;;;;;;;;;;;;;;8.20;100.00;101092.19;5061651;28;20076;-72
2022/11/05 01:07:01;;;;;;;27.95;14.40;;;;;;;8.20;100.00;101097.69;5060802;28;19916;-72
2022/11/05 01:09:27;;;;;;;26.30;13.50;;;;;;;8.22;100.00;101094.59;5067296;28;20036;-72
2022/11/05 01:11:54;;;;;;;26.02;13.27;;;;;;;8.27;100.00;101088.78;5064983;28;20584;-72
2022/11/05 01:14:21;;;;;;;31.10;15.70;;;;;;;8.27;100.00;101089.56;5065642;28;20127;-72
2022/11/05 01:16:47;;;;;;;28.35;13.88;;;;;;;8.26;100.00;101090.72;5064582;28;20063;-72
2022/11/05 01:19:14;;;;;;;27.33;14.13;;;;;;;8.22;100.00;101094.59;5062290;28;20140;-71
2022/11/05 01:21:40;;;;;;;27.63;12.73;;;;;;;8.08;100.00;101095.16;5067187;28;20048;-72
2022/11/05 01:24:09;;;;;;;26.02;12.18;;;;;;;8.00;100.00;101099.78;5063667;28;20520;-71
2022/11/05 01:26:43;;;;;;;22.25;11.90;;;;;;;7.88;100.00;101093.69;5066950;28;20048;-71
2022/11/05 01:29:09;;;;;;;28.13;12.82;;;;;;;7.99;100.00;101097.38;5062132;28;20083;-72
2022/11/05 01:31:36;;;;;;;26.25;11.80;;;;;;;7.96;100.00;101096.16;5063291;28;20045;-71
2022/11/05 01:34:02;;;;;;;22.75;11.50;;;;;;;7.91;100.00;101103.97;5059768;28;20052;-72
2022/11/05 01:36:29;;;;;;;25.40;12.43;;;;;;;7.82;100.00;101095.16;5066071;28;20129;-71
2022/11/05 01:38:55;;;;;;;29.27;13.15;;;;;;;7.80;100.00;101111.25;5068137;28;20053;-71
2022/11/05 01:41:22;;;;;;;30.83;12.43;;;;;;;7.75;100.00;101109.63;5065530;28;20500;-71
2022/11/05 01:43:55;;;;;;;25.48;12.00;;;;;;;7.79;100.00;101104.16;5057404;28;20105;-71
2022/11/05 01:46:48;;;;;;;29.15;13.15;;;;;;;7.79;100.00;101115.16;5061354;28;20060;-71
2022/11/05 01:49:27;;;;;;;26.15;11.95;;;;;;;7.68;100.00;101105.94;5052027;28;20110;-72
2022/11/05 01:52:06;;;;;;;23.98;11.05;;;;;;;7.56;100.00;101120.69;5067777;28;20497;-73
2022/11/05 01:54:34;;;;;;;23.88;11.95;;;;;;;7.57;100.00;101114.00;5069158;28;20048;-71
2022/11/05 01:57:16;;;;;;;24.58;11.95;;;;;;;7.48;100.00;101115.41;5067694;28;20098;-71
2022/11/05 01:59:48;;;;;;;25.98;11.82;;;;;;;7.48;100.00;101121.72;5058292;28;20576;-71
2022/11/05 02:02:15;;;;;;;31.85;12.80;;;;;;;7.44;100.00;101114.56;5061724;28;20044;-72
2022/11/05 02:04:59;;;;;;;27.45;13.27;;;;;;;7.41;100.00;101115.31;5055717;28;20417;-71
2022/11/05 02:07:32;;;;;;;26.70;12.90;;;;;;;7.41;100.00;101116.09;5061005;28;20595;-73
2022/11/05 02:10:03;;;;;;;30.13;13.18;;;;;;;7.42;100.00;101125.94;5059726;28;20056;-72
2022/11/05 02:12:41;;;;;;;30.17;12.48;;;;;;;7.42;100.00;101122.38;5056880;28;20068;-72
2022/11/05 02:15:12;;;;;;;24.65;12.52;;;;;;;7.38;100.00;101127.03;5066892;28;20045;-72
2022/11/05 02:17:54;;;;;;;27.88;14.02;;;;;;;7.44;100.00;101133.84;5063501;28;20151;-72
2022/11/05 02:20:26;;;;;;;27.75;11.98;;;;;;;7.34;100.00;101142.69;5058573;28;20413;-71
2022/11/05 02:23:39;;;;;;;31.20;12.50;;;;;;;7.33;100.00;101141.13;5063697;28;20400;-71
2022/11/05 02:26:43;;;;;;;25.58;12.02;;;;;;;7.36;100.00;101135.66;5018181;28;20482;-71
2022/11/05 02:29:54;;;;;;;27.42;12.23;;;;;;;7.35;100.00;101138.78;5021061;28;20042;-72
2022/11/05 02:32:49;;;;;;;26.25;12.65;;;;;;;7.36;100.00;101146.66;5020408;28;20053;-72
2022/11/05 02:35:47;;;;;;;25.10;12.63;;;;;;;7.32;100.00;101150.50;5008936;28;20053;-70
2022/11/05 02:38:37;;;;;;;26.63;13.48;;;;;;;7.28;100.00;101150.47;5024598;28;20088;-72
2022/11/05 02:41:21;;;;;;;28.92;12.52;;;;;;;7.26;100.00;101158.28;5015442;28;20080;-73
2022/11/05 02:44:16;;;;;;;27.20;14.10;;;;;;;7.27;100.00;101151.63;5022121;28;20054;-71
2022/11/05 02:47:08;;;;;;;24.48;12.18;;;;;;;7.22;100.00;101151.91;5008660;28;20649;-71
2022/11/05 02:49:46;;;;;;;27.23;12.85;;;;;;;7.29;100.00;101156.78;5006738;28;20586;-70
2022/11/05 02:52:20;;;;;;;26.75;12.43;;;;;;;7.27;100.00;101153.56;5022034;28;20049;-70
2022/11/05 02:55:02;;;;;;;26.65;12.40;;;;;;;7.26;100.00;101146.50;5024048;28;20220;-72
2022/11/05 02:57:29;;;;;;;28.92;12.32;;;;;;;7.22;100.00;101145.59;5024222;28;20804;-71
2022/11/05 03:00:04;;;;;;;23.35;10.63;;;;;;;7.21;100.00;101141.28;5024124;28;20132;-73
2022/11/05 03:02:31;;;;;;;22.63;12.82;;;;;;;7.25;100.00;101150.38;5039083;28;20193;-73
2022/11/05 03:04:59;;;;;;;25.17;11.32;;;;;;;7.22;100.00;101156.63;5063377;28;20052;-73
2022/11/05 03:07:35;;;;;;;25.05;12.13;;;;;;;7.22;100.00;101160.16;5064461;28;20200;-74
2022/11/05 03:10:10;;;;;;;26.23;12.27;;;;;;;7.24;100.00;101148.81;5063580;28;20056;-73
2022/11/05 03:12:50;;;;;;;29.05;14.18;;;;;;;7.26;100.00;101150.03;5057204;28;20099;-72
2022/11/05 03:15:29;;;;;;;30.30;13.57;;;;;;;7.25;100.00;101150.38;5066034;28;20056;-73
2022/11/05 03:18:37;;;;;;;27.58;14.68;;;;;;;7.35;100.00;101147.03;5062452;28;20060;-73
2022/11/05 03:21:08;;;;;;;30.20;14.95;;;;;;;7.37;100.00;101150.22;5025873;28;20563;-72
2022/11/05 03:23:57;;;;;;;27.70;13.88;;;;;;;7.39;100.00;101145.16;5063088;28;20044;-73
2022/11/05 03:26:30;;;;;;;27.88;13.80;;;;;;;7.40;100.00;101141.25;5063289;28;20142;-72
2022/11/05 03:29:06;;;;;;;29.67;14.98;;;;;;;7.44;100.00;101144.84;5059983;28;20049;-72
2022/11/05 03:31:35;;;;;;;26.88;13.25;;;;;;;7.39;100.00;101156.19;5055957;28;20049;-73
2022/11/05 03:34:05;;;;;;;28.27;13.88;;;;;;;7.36;100.00;101154.16;5059817;28;20131;-73
2022/11/05 03:36:40;;;;;;;28.05;13.93;;;;;;;7.36;100.00;101148.66;5066565;28;20058;-72
2022/11/05 03:39:12;;;;;;;26.05;13.75;;;;;;;7.35;100.00;101158.06;5064799;28;20051;-73
2022/11/05 03:41:43;;;;;;;27.40;14.05;;;;;;;7.28;100.00;101153.22;5060852;28;20059;-72
2022/11/05 03:44:12;;;;;;;38.70;16.38;;;;;;;7.30;100.00;101161.13;5058046;28;20048;-72
2022/11/05 03:46:48;;;;;;;25.38;14.02;;;;;;;7.29;100.00;101156.78;5059852;28;20049;-70
2022/11/05 03:49:20;;;;;;;26.50;14.48;;;;;;;7.27;100.00;101159.91;5065201;28;20052;-71
2022/11/05 03:52:12;;;;;;;25.73;13.93;;;;;;;7.20;100.00;101170.75;5063182;28;20044;-74
2022/11/05 03:54:38;;;;;;;24.83;13.50;;;;;;;7.19;100.00;101174.66;5045269;28;20699;-72
2022/11/05 03:57:09;;;;;;;26.60;13.52;;;;;;;7.17;100.00;101177.00;5055490;28;20140;-73
2022/11/05 03:59:42;;;;;;;27.58;13.55;;;;;;;7.20;100.00;101180.97;5052633;28;21665;-72
2022/11/05 04:02:17;;;;;;;28.58;13.63;;;;;;;7.12;100.00;101179.25;5040165;28;20533;-73
2022/11/05 04:04:44;;;;;;;29.35;14.02;;;;;;;7.03;100.00;101181.41;5037563;28;20075;-73
2022/11/05 04:15:28;;;;;;;28.67;15.90;;;;;;;6.96;100.00;101186.78;5027285;28;20044;-72
2022/11/05 04:17:57;;;;;;;28.58;15.13;;;;;;;6.99;100.00;101194.31;5029946;28;20060;-73
2022/11/05 04:26:10;;;;;;;30.30;16.13;;;;;;;7.01;100.00;101190.03;5031516;28;20064;-69
2022/11/05 04:31:25;;;;;;;28.60;15.68;;;;;;;7.12;100.00;101190.25;5042672;28;20064;-71
2022/11/05 04:33:51;;;;;;;30.85;16.23;;;;;;;7.07;100.00;101196.03;5065769;28;20451;-73
2022/11/05 04:36:18;;;;;;;33.47;15.52;;;;;;;6.96;100.00;101195.03;5063216;28;20052;-72
2022/11/05 04:38:44;;;;;;;29.50;14.82;;;;;;;7.05;100.00;101203.84;5062630;28;20045;-73
2022/11/05 04:41:12;;;;;;;29.73;16.77;;;;;;;7.10;100.00;101214.56;5067169;28;20056;-72
2022/11/05 04:43:39;;;;;;;28.35;15.82;;;;;;;7.09;100.00;101218.50;5066099;28;20048;-72
2022/11/05 04:46:06;;;;;;;33.95;17.25;;;;;;;6.99;100.00;101202.56;5065389;28;20067;-73
2022/11/05 04:48:32;;;;;;;32.30;18.77;;;;;;;7.02;100.00;101212.84;5069734;28;20071;-74
2022/11/05 04:51:05;;;;;;;30.83;17.05;;;;;;;6.99;100.00;101210.81;5063029;28;20049;-73
2022/11/05 04:53:31;;;;;;;31.10;16.63;;;;;;;6.91;100.00;101209.84;5053560;28;20041;-73
2022/11/05 04:56:34;;;;;;;30.25;17.73;;;;;;;6.96;100.00;101214.28;5060271;28;20049;-73
2022/11/05 04:59:01;;;;;;;30.42;17.52;;;;;;;6.96;100.00;101209.56;5065651;28;20048;-72
2022/11/05 05:01:27;;;;;;;30.27;16.75;;;;;;;6.98;100.00;101210.00;5063300;28;20045;-74
2022/11/05 05:03:58;;;;;;;30.88;16.98;;;;;;;6.94;100.00;101203.63;5058469;28;20767;-71
2022/11/05 05:06:25;;;;;;;27.90;16.38;;;;;;;6.95;100.00;101212.69;5055318;28;20531;-70
2022/11/05 05:08:52;;;;;;;29.30;16.00;;;;;;;6.91;100.00;101211.78;5063871;28;20075;-72
2022/11/05 05:11:20;;;;;;;32.58;16.27;;;;;;;6.87;100.00;101208.19;5060093;28;20456;-72
2022/11/05 05:13:49;;;;;;;31.25;17.05;;;;;;;6.84;100.00;101209.69;5058121;28;20059;-72
2022/11/05 05:16:23;;;;;;;30.63;16.60;;;;;;;6.84;100.00;101212.44;5060778;28;20098;-71
2022/11/05 05:18:56;;;;;;;30.70;17.63;;;;;;;6.78;100.00;101213.09;5062539;28;20075;-72
2022/11/05 05:21:37;;;;;;;30.15;16.75;;;;;;;6.77;100.00;101219.75;5068071;28;20052;-71
2022/11/05 05:24:09;;;;;;;31.42;17.70;;;;;;;6.79;100.00;101220.19;5066385;28;20044;-71
2022/11/05 05:26:38;;;;;;;29.52;16.23;;;;;;;6.78;100.00;101224.13;5056814;28;20098;-71
2022/11/05 05:29:05;;;;;;;37.72;18.58;;;;;;;6.74;100.00;101224.00;5061805;28;20044;-71
2022/11/05 05:31:32;;;;;;;29.88;17.77;;;;;;;6.77;100.00;101225.25;5068759;28;20086;-71
2022/11/05 05:33:59;;;;;;;31.38;17.27;;;;;;;6.77;100.00;101217.00;5062266;28;20053;-71
2022/11/05 05:36:26;;;;;;;33.85;17.45;;;;;;;6.76;100.00;101220.91;5064146;28;20044;-72
2022/11/05 05:38:52;;;;;;;35.28;18.52;;;;;;;6.76;100.00;101224.47;5061263;28;20052;-74
2022/11/05 05:41:28;;;;;;;30.00;17.42;;;;;;;6.77;100.00;101230.75;5062561;28;20764;-72
2022/11/05 05:43:54;;;;;;;33.33;17.92;;;;;;;6.80;100.00;101232.78;5058791;28;20394;-71
2022/11/05 05:46:21;;;;;;;36.42;18.85;;;;;;;6.82;100.00;101234.00;5063196;28;20045;-72
2022/11/05 05:48:50;;;;;;;32.15;18.02;;;;;;;6.80;100.00;101224.53;5062744;28;20048;-72
2022/11/05 05:51:17;;;;;;;32.30;17.35;;;;;;;6.81;100.00;101228.88;5065999;28;20052;-72
2022/11/05 05:53:44;;;;;;;32.42;19.52;;;;;;;6.85;100.00;101225.03;5064964;28;20459;-72
2022/11/05 05:56:13;;;;;;;33.08;18.08;;;;;;;6.87;100.00;101235.69;5058143;28;20478;-71
2022/11/05 05:58:48;;;;;;;37.40;19.00;;;;;;;6.86;100.00;101243.16;5064380;28;20044;-71
2022/11/05 06:01:17;;;;;;;34.30;19.08;;;;;;;6.87;100.00;101249.44;5063457;28;20044;-72
2022/11/05 06:03:49;;;;;;;30.17;17.48;;;;;;;6.84;100.00;101253.72;5068182;28;20072;-72
2022/11/05 06:06:18;;;;;;;31.58;17.08;;;;;;;6.81;100.00;101253.63;5064877;28;20055;-72
2022/11/05 06:08:45;;;;;;;36.05;17.55;;;;;;;6.76;100.00;101254.72;5060888;28;20143;-72
2022/11/05 06:11:12;;;;;;;32.35;17.23;;;;;;;6.76;100.00;101257.47;5059094;28;20044;-72
2022/11/05 06:13:39;;;;;;;29.15;17.05;;;;;;;6.75;100.00;101260.56;5063148;28;20049;-72
2022/11/05 06:16:11;;;;;;;32.63;17.00;;;;;;;6.77;100.00;101267.31;5067701;28;20040;-72
2022/11/05 06:18:38;;;;;;;34.92;18.05;;;;;;;6.75;100.00;101268.81;5066104;28;20041;-72
2022/11/05 06:21:13;;;;;;;26.55;15.95;;;;;;;6.71;100.00;101278.94;5062406;28;20055;-72
2022/11/05 06:23:43;;;;;;;31.23;16.95;;;;;;;6.71;100.00;101278.94;5057705;28;20064;-73
2022/11/05 06:26:41;;;;;;;36.92;17.75;;;;;;;6.74;100.00;101281.78;5064930;28;20150;-70
2022/11/05 06:29:09;;;;;;;34.53;19.00;;;;;;;6.79;100.00;101281.47;5065202;28;20843;-72
2022/11/05 06:31:36;;;;;;;34.38;20.25;;;;;;;6.82;100.00;101283.53;5065186;28;20055;-74
2022/11/05 06:34:03;;;;;;;34.53;19.30;;;;;;;6.83;100.00;101285.13;5055406;28;20114;-72
2022/11/05 06:36:30;;;;;;;34.13;18.63;;;;;;;6.85;100.00;101276.53;5062352;28;20862;-72
2022/11/05 06:38:56;;;;;;;36.95;19.30;;;;;;;6.91;100.00;101286.06;5068431;28;20045;-72
2022/11/05 06:41:23;;;;;;;38.20;19.50;;;;;;;6.91;100.00;101288.81;5067373;28;20067;-72
2022/11/05 06:43:49;;;;;;;31.52;18.73;;;;;;;6.88;100.00;101290.34;5065721;28;20574;-72
2022/11/05 06:46:15;;;;;;;34.53;18.52;;;;;;;6.85;100.00;101287.53;5066409;28;20060;-71
2022/11/05 06:48:42;;;;;;;38.65;20.83;;;;;;;6.88;100.00;101297.78;5067202;28;20539;-72
2022/11/05 06:51:08;;;;;;;38.45;19.08;;;;;;;6.88;100.00;101301.34;5062918;28;20052;-72
2022/11/05 06:53:35;;;;;;;35.05;18.45;;;;;;;6.84;100.00;101305.97;5060619;28;20067;-72
2022/11/05 06:56:04;;;;;;;35.25;19.10;;;;;;;6.86;100.00;101308.38;5065194;28;20063;-72
2022/11/05 06:58:31;;;;;;;37.47;19.17;;;;;;;6.88;100.00;101311.53;5057450;28;20045;-72
2022/11/05 07:01:03;;;;;;;37.72;19.85;;;;;;;6.89;100.00;101315.91;5059407;28;20048;-72
2022/11/05 07:03:30;;;;;;;34.70;19.25;;;;;;;6.93;100.00;101314.03;5059158;28;20060;-72
2022/11/05 07:05:59;;;;;;;40.08;20.98;;;;;;;6.97;100.00;101312.97;5064766;28;20040;-72
2022/11/05 07:08:30;;;;;;;41.72;20.23;;;;;;;6.99;100.00;101329.13;5065267;28;20059;-73
2022/11/05 07:10:57;;;;;;;36.10;17.67;;;;;;;6.98;100.00;101335.75;5057742;28;20052;-73
2022/11/05 07:13:26;;;;;;;39.05;21.08;;;;;;;7.07;100.00;101325.34;5059892;28;20060;-73
2022/11/05 07:15:55;;;;;;;39.42;21.42;;;;;;;7.10;100.00;101328.19;5054052;28;20147;-73
2022/11/05 07:18:22;;;;;;;48.58;20.70;;;;;;;7.09;100.00;101334.06;5054312;28;20646;-73
2022/11/05 07:20:49;;;;;;;40.17;20.33;;;;;;;7.09;100.00;101332.09;5058314;28;20782;-72
2022/11/05 07:23:15;;;;;;;47.78;22.83;;;;;;;7.15;100.00;101332.59;5062315;28;20049;-72
2022/11/05 07:25:42;;;;;;;43.17;21.80;;;;;;;7.19;100.00;101337.03;5066540;28;20559;-72
2022/11/05 07:28:09;;;;;;;42.03;21.25;;;;;;;7.24;100.00;101335.97;5058882;28;20060;-72
2022/11/05 07:30:36;;;;;;;44.55;25.10;;;;;;;7.28;100.00;101340.41;5060805;28;20044;-72
2022/11/05 07:33:03;;;;;;;42.17;20.83;;;;;;;7.30;100.00;101327.06;5063081;28;20064;-72
2022/11/05 07:35:29;;;;;;;40.88;21.20;;;;;;;7.38;100.00;101336.25;5055328;28;20044;-72
2022/11/05 07:37:56;;;;;;;41.90;22.23;;;;;;;7.39;100.00;101335.13;5058855;28;20045;-72
2022/11/05 07:40:25;;;;;;;46.70;20.13;;;;;;;7.45;100.00;101342.72;5055483;28;20056;-74
2022/11/05 07:42:53;;;;;;;45.95;20.27;;;;;;;7.51;100.00;101351.50;5063074;28;20067;-72
2022/11/05 07:45:29;;;;;;;35.38;17.30;;;;;;;7.53;100.00;101355.47;5058867;28;20044;-74
2022/11/05 07:47:59;;;;;;;46.85;23.13;;;;;;;7.62;100.00;101356.06;5063310;28;20049;-73
2022/11/05 07:50:37;;;;;;;34.05;13.07;;;;;;;7.61;100.00;101360.00;5063341;28;20053;-71
2022/11/05 07:53:13;;;;;;;32.05;13.60;;;;;;;7.73;100.00;101353.56;5065921;28;20053;-74
2022/11/05 07:55:51;;;;;;;26.73;12.65;;;;;;;7.78;100.00;101356.00;5061716;28;20057;-74
2022/11/05 07:58:17;;;;;;;51.13;25.98;;;;;;;7.86;100.00;101350.28;5063956;28;20544;-74
2022/11/05 08:00:55;;;;;;;53.17;24.98;;;;;;;7.94;100.00;101356.72;5061036;28;20048;-74
2022/11/05 08:03:24;;;;;;;22.83;8.90;;;;;;;7.94;100.00;101360.25;5064473;28;20558;-75
2022/11/05 08:05:50;;;;;;;50.65;25.90;;;;;;;8.07;100.00;101367.22;5056755;28;20045;-72
2022/11/05 08:08:18;;;;;;;23.67;12.43;;;;;;;8.06;100.00;101358.53;5061666;28;20063;-74
2022/11/05 08:10:46;;;;;;;50.53;26.40;;;;;;;8.16;100.00;101361.47;5060024;28;20044;-74
2022/11/05 08:13:13;;;;;;;49.25;21.85;;;;;;;8.18;100.00;101361.09;5057002;28;20509;-74
2022/11/05 08:15:41;;;;;;;49.28;25.40;;;;;;;8.28;100.00;101361.34;5064520;28;20044;-73
2022/11/05 08:18:13;;;;;;;49.55;24.65;;;;;;;8.36;100.00;101360.31;5060560;28;20143;-75
2022/11/05 08:20:41;;;;;;;44.13;24.58;;;;;;;8.47;100.00;101354.97;5059515;28;20048;-70
2022/11/05 08:23:09;;;;;;;43.83;25.27;;;;;;;8.51;100.00;101361.34;5063802;28;20056;-73
2022/11/05 08:25:36;;;;;;;47.95;23.27;;;;;;;8.58;100.00;101355.97;5059528;28;20147;-74
2022/11/05 08:28:06;;;;;;;47.60;25.70;;;;;;;8.71;100.00;101365.66;5057319;28;20044;-72
2022/11/05 08:30:34;;;;;;;48.03;24.80;;;;;;;8.78;100.00;101361.00;5058960;28;20132;-72
2022/11/05 08:33:04;;;;;;;21.85;9.98;;;;;;;8.74;100.00;101378.72;5061252;28;20057;-72
2022/11/05 08:35:33;;;;;;;41.80;20.15;;;;;;;8.88;100.00;101365.91;5057464;28;20044;-74
2022/11/05 08:38:02;;;;;;;42.97;20.33;;;;;;;8.95;100.00;101370.75;5062542;28;20048;-72
2022/11/05 08:40:31;;;;;;;49.70;27.92;;;;;;;9.08;100.00;101370.16;5059861;28;20182;-75
2022/11/05 08:43:01;;;;;;;45.60;23.05;;;;;;;9.14;100.00;101373.41;5064927;28;20102;-72
2022/11/05 08:45:32;;;;;;;25.60;14.20;;;;;;;9.19;100.00;101375.88;5063831;28;20048;-72
2022/11/05 08:48:02;;;;;;;37.13;17.30;;;;;;;9.34;100.00;101374.88;5063559;28;20504;-73
2022/11/05 08:50:29;;;;;;;9.50;5.38;;;;;;;9.37;100.00;101382.44;5062210;28;20058;-72
2022/11/05 08:52:56;;;;;;;25.08;11.20;;;;;;;9.35;100.00;101380.03;5064305;28;20053;-73
2022/11/05 08:55:23;;;;;;;23.50;12.02;;;;;;;9.50;100.00;101381.84;5060129;28;20067;-73
2022/11/05 08:57:57;;;;;;;35.38;19.88;;;;;;;9.67;100.00;101380.47;5059619;28;20104;-73
2022/11/05 09:00:26;;;;;;;21.88;11.48;;;;;;;9.62;100.00;101380.81;5055465;28;20052;-72
2022/11/05 09:02:53;;;;;;;21.63;10.35;;;;;;;9.69;100.00;101383.69;5059672;28;20055;-74
2022/11/05 09:05:19;;;;;;;18.17;8.60;;;;;;;9.76;100.00;101378.25;5061294;28;20041;-74
2022/11/05 09:07:46;;;;;;;11.68;5.18;;;;;;;9.86;100.00;101389.41;5055787;28;20045;-75
2022/11/05 09:10:13;;;;;;;22.48;9.38;;;;;;;10.02;100.00;101390.00;5055734;28;20052;-75
2022/11/05 09:12:40;;;;;;;22.58;5.70;;;;;;;10.09;100.00;101397.63;5060925;28;20572;-74
2022/11/05 09:15:08;;;;;;;27.38;13.52;;;;;;;10.28;100.00;101391.91;5053531;28;20048;-74
2022/11/05 09:17:34;;;;;;;30.58;13.63;;;;;;;10.36;100.00;101396.34;5061549;28;20080;-72
2022/11/05 09:20:02;;;;;;;21.80;9.82;;;;;;;10.33;100.00;101392.38;5060259;28;20075;-74
2022/11/05 09:22:28;;;;;;;30.83;13.20;;;;;;;10.50;100.00;101399.28;5060032;28;20264;-73
2022/11/05 09:24:55;;;;;;;10.98;5.35;;;;;;;10.53;100.00;101404.81;5060623;28;20044;-73
2022/11/05 09:27:22;;;;;;;26.80;12.85;;;;;;;10.62;100.00;101401.75;5057833;28;20048;-73
2022/11/05 09:29:48;;;;;;;19.05;9.18;;;;;;;10.63;100.00;101402.56;5059159;28;20048;-72
2022/11/05 09:32:18;;;;;;;12.13;5.43;;;;;;;10.80;100.00;101401.91;5062137;28;20056;-74
2022/11/05 09:34:44;;;;;;;17.27;6.95;;;;;;;10.76;100.00;101409.41;5063655;28;20052;-76
2022/11/05 09:37:11;;;;;;;26.70;9.43;;;;;;;10.93;100.00;101406.75;5059780;28;20056;-73
2022/11/05 09:39:37;;;;;;;18.80;9.88;;;;;;;10.97;100.00;101404.03;5059966;28;20087;-72
2022/11/05 09:42:06;;;;;;;25.63;11.20;;;;;;;11.07;100.00;101404.09;5059671;28;20502;-74
2022/11/05 09:44:41;;;;;;;10.30;4.07;;;;;;;11.18;100.00;101402.22;5057287;28;20055;-74
2022/11/05 09:47:52;;;;;;;24.10;11.88;;;;;;;11.41;100.00;101407.53;5059133;28;20048;-72
2022/11/05 09:50:24;;;;;;;26.77;10.70;;;;;;;11.58;100.00;101418.69;5059606;28;20098;-74
2022/11/05 09:52:51;;;;;;;9.45;3.88;;;;;;;11.65;100.00;101409.69;5054608;28;20106;-75
2022/11/05 09:55:31;;;;;;;24.38;10.45;;;;;;;11.82;100.00;101406.22;5067223;28;20037;-72
2022/11/05 09:58:09;;;;;;;24.38;9.48;;;;;;;12.01;100.00;101405.88;5060149;28;20187;-74
2022/11/05 10:00:36;;;;;;;20.15;7.43;;;;;;;11.98;100.00;101396.38;5058930;28;20060;-74
2022/11/05 10:03:10;;;;;;;14.85;6.63;;;;;;;12.07;100.00;101413.44;5061594;28;20064;-72
2022/11/05 10:05:39;;;;;;;8.23;4.10;;;;;;;12.03;100.00;101406.28;5061959;28;20417;-73
2022/11/05 10:08:15;;;;;;;14.32;6.07;;;;;;;12.10;100.00;101401.56;5063963;28;20786;-72
2022/11/05 10:10:46;;;;;;;13.27;5.43;;;;;;;12.21;100.00;101412.69;5060621;28;20049;-73
2022/11/05 10:13:38;;;;;;;19.95;8.02;;;;;;;12.42;100.00;101412.78;5059439;28;20597;-73
2022/11/05 10:16:40;;;;;;;10.20;4.28;;;;;;;12.52;100.00;101404.44;5063862;28;20106;-73
2022/11/05 10:19:38;;;;;;;22.48;9.05;;;;;;;12.57;100.00;101406.06;5060571;28;20052;-72
2022/11/05 10:22:15;;;;;;;7.72;3.50;;;;;;;12.68;100.00;101409.63;5057389;28;20786;-72
2022/11/05 10:24:49;;;;;;;12.27;4.55;;;;;;;12.82;100.00;101404.09;5053094;28;20045;-73
2022/11/05 10:27:24;;;;;;;10.60;3.83;;;;;;;13.17;100.00;101406.09;5042244;28;20053;-75
2022/11/05 10:29:50;;;;;;;18.80;6.53;;;;;;;13.31;100.00;101406.91;5039200;28;20827;-75
2022/11/05 10:32:27;;;;;;;10.90;4.32;;;;;;;13.24;100.00;101408.88;5041800;28;20634;-73
2022/11/05 10:34:58;;;;;;;18.75;6.55;;;;;;;13.58;100.00;101405.25;5043715;28;20378;-75
2022/11/05 10:37:26;;;;;;;18.90;6.75;;;;;;;13.77;100.00;101404.78;5039864;28;20086;-71
2022/11/05 10:39:53;;;;;;;7.25;2.15;;;;;;;14.09;100.00;101404.66;5043188;28;20078;-75
2022/11/05 10:43:04;;;;;;;9.38;2.67;;;;;;;14.27;100.00;101410.97;5044560;28;20052;-69
2022/11/05 10:45:43;;;;;;;13.55;4.38;;;;;;;14.53;99.48;101413.22;5036786;28;20055;-76
2022/11/05 10:48:44;;;;;;;9.18;3.40;;;;;;;14.43;98.48;101414.88;5044239;28;20055;-75
2022/11/05 10:51:11;;;;;;;7.93;3.15;;;;;;;14.17;96.43;101418.13;5045244;28;20074;-75
2022/11/05 10:53:41;;;;;;;6.90;2.78;;;;;;;14.16;96.37;101426.91;5042987;28;20048;-79
2022/11/05 10:56:32;;;;;;;12.20;4.55;;;;;;;14.22;97.99;101422.50;5044093;28;20666;-74
2022/11/05 10:59:00;;;;;;;10.75;3.90;;;;;;;14.21;97.37;101420.91;5043954;28;20063;-73
2022/11/05 11:01:28;;;;;;;4.43;1.73;;;;;;;14.11;96.70;101419.75;5048192;28;20048;-74
2022/11/05 11:04:16;;;;;;;4.25;2.28;;;;;;;14.62;95.05;101414.31;5039146;28;20048;-74
2022/11/05 11:06:48;;;;;;;7.90;3.00;;;;;;;15.10;89.59;101412.41;5040090;28;20045;-74
2022/11/05 11:09:23;;;;;;;7.72;2.55;;;;;;;14.99;86.53;101422.81;5040323;28;20060;-76
2022/11/05 11:11:58;;;;;;;8.98;4.03;;;;;;;15.22;88.93;101411.88;5038665;28;20064;-76
2022/11/05 11:14:25;;;;;;;7.22;2.97;;;;;;;15.00;87.43;101413.28;5045165;28;20093;-74
2022/11/05 11:16:56;;;;;;;10.60;2.78;;;;;;;14.62;89.49;101421.91;5038825;28;20829;-73
2022/11/05 11:19:30;;;;;;;5.50;2.53;;;;;;;14.56;91.16;101424.34;5038502;28;20587;-73
2022/11/05 11:22:02;;;;;;;15.35;4.88;;;;;;;14.52;93.17;101412.41;5039354;28;20053;-73
2022/11/05 11:24:35;;;;;;;13.35;3.45;;;;;;;14.20;94.02;101416.53;5044948;28;20144;-74
2022/11/05 11:27:25;;;;;;;9.20;3.13;;;;;;;14.34;94.12;101406.16;5037628;28;20825;-72
2022/11/05 11:30:04;;;;;;;14.20;4.60;;;;;;;14.69;93.13;101407.94;5032708;28;20148;-76
2022/11/05 11:32:35;;;;;;;9.45;3.40;;;;;;;14.58;91.24;101399.63;5041783;28;20068;-73
2022/11/05 11:35:03;;;;;;;11.85;3.00;;;;;;;14.65;92.42;101415.53;5029486;28;20098;-73
2022/11/05 11:37:40;;;;;;;5.03;2.25;;;;;;;14.62;93.00;101413.56;5036952;28;20554;-73
2022/11/05 11:40:24;;;;;;;16.80;5.03;;;;;;;14.68;91.58;101421.06;5040464;28;20099;-73
2022/11/05 11:42:54;;;;;;;9.93;2.83;;;;;;;14.78;91.09;101411.06;5035817;28;20094;-75
2022/11/05 11:45:35;;;;;;;7.95;3.25;;;;;;;15.27;85.60;101410.63;5036863;28;20064;-74
2022/11/05 11:48:05;;;;;;;5.90;2.80;;;;;;;15.45;84.03;101417.66;5041332;28;20052;-74
2022/11/05 11:50:38;;;;;;;8.13;2.97;;;;;;;15.82;80.24;101432.84;5038438;28;20077;-74
2022/11/05 11:53:20;;;;;;;10.38;3.88;;;;;;;16.77;74.97;101418.41;5037001;28;20056;-75
2022/11/05 11:56:17;;;;;;;13.60;4.63;;;;;;;17.74;69.61;101407.53;5039714;28;20049;-75
2022/11/05 11:58:46;;;;;;;14.27;5.28;;;;;;;18.11;71.07;101409.19;5041248;28;20048;-75
2022/11/05 12:01:26;;;;;;;3.58;2.13;;;;;;;17.92;67.69;101413.56;5040623;28;20059;-77
2022/11/05 12:04:10;;;;;;;10.90;3.50;;;;;;;17.07;68.85;101429.50;5037036;28;20731;-76
2022/11/05 12:07:11;;;;;;;9.88;3.70;;;;;;;16.14;74.81;101414.50;5041091;28;20044;-77
2022/11/05 12:09:52;;;;;;;7.38;2.60;;;;;;;15.06;80.53;101417.19;5037931;28;20492;-77
2022/11/05 12:12:45;;;;;;;3.92;1.83;;;;;;;14.89;84.33;101415.31;5038202;28;20065;-76
2022/11/05 12:15:37;;;;;;;17.90;3.67;;;;;;;14.52;86.38;101420.75;5041384;28;20060;-74
2022/11/05 12:18:17;;;;;;;7.00;3.40;;;;;;;14.47;87.81;101407.28;5034589;28;20804;-76
2022/11/05 12:20:44;;;;;;;6.70;3.05;;;;;;;14.34;89.49;101416.50;5043050;28;20076;-76
2022/11/05 12:23:38;;;;;;;12.85;4.85;;;;;;;14.13;92.08;101416.56;5043880;28;20052;-76